createdAt,value
2019-04-29T00:00:46.046Z,1012.78
2019-04-29T00:01:46.045Z,1012.76
2019-04-29T00:02:46.033Z,1012.75
2019-04-29T00:03:46.028Z,1012.79
2019-04-29T00:04:46.022Z,1012.79
2019-04-29T00:05:46.015Z,1012.76
2019-04-29T00:06:46.009Z,1012.77
2019-04-29T00:07:46.004Z,1012.74
2019-04-29T00:08:46.006Z,1012.80
2019-04-29T00:09:45.992Z,1012.78
2019-04-29T00:10:45.983Z,1012.77
2019-04-29T00:11:45.980Z,1012.79
2019-04-29T00:12:45.970Z,1012.82
2019-04-29T00:13:45.967Z,1012.81
2019-04-29T00:14:45.959Z,1012.84
2019-04-29T00:15:45.955Z,1012.79
2019-04-29T00:16:45.945Z,1012.86
2019-04-29T00:17:45.939Z,1012.82
2019-04-29T00:18:45.933Z,1012.85
2019-04-29T00:19:45.927Z,1012.83
2019-04-29T00:20:45.922Z,1012.81
2019-04-29T00:21:45.915Z,1012.77
2019-04-29T00:22:45.909Z,1012.80
2019-04-29T00:23:45.901Z,1012.82
2019-04-29T00:24:45.894Z,1012.81
2019-04-29T00:25:45.888Z,1012.83
2019-04-29T00:26:45.882Z,1012.85
2019-04-29T00:27:45.874Z,1012.79
2019-04-29T00:28:45.868Z,1012.83
2019-04-29T00:29:45.865Z,1012.85
2019-04-29T00:30:45.857Z,1012.84
2019-04-29T00:31:45.850Z,1012.86
2019-04-29T00:32:45.843Z,1012.84
2019-04-29T00:33:45.835Z,1012.87
2019-04-29T00:34:45.829Z,1012.80
2019-04-29T00:35:45.825Z,1012.85
2019-04-29T00:36:45.818Z,1012.83
2019-04-29T00:37:45.811Z,1012.82
2019-04-29T00:38:45.811Z,1012.82
2019-04-29T00:39:45.799Z,1012.85
2019-04-29T00:40:45.791Z,1012.86
2019-04-29T00:41:45.784Z,1012.83
2019-04-29T00:42:45.781Z,1012.88
2019-04-29T00:43:45.780Z,1012.90
2019-04-29T00:44:45.764Z,1012.88
2019-04-29T00:45:45.760Z,1012.88
2019-04-29T00:46:45.752Z,1012.87
2019-04-29T00:47:45.746Z,1012.87
2019-04-29T00:48:45.740Z,1012.88
2019-04-29T00:49:45.732Z,1012.88
2019-04-29T00:50:45.726Z,1012.88
2019-04-29T00:51:45.722Z,1012.90
2019-04-29T00:52:45.714Z,1012.86
2019-04-29T00:53:45.715Z,1012.88
2019-04-29T00:54:45.700Z,1012.89
2019-04-29T00:55:45.695Z,1012.91
2019-04-29T00:56:45.689Z,1012.89
2019-04-29T00:57:45.684Z,1012.95
2019-04-29T00:58:45.677Z,1012.88
2019-04-29T00:59:45.669Z,1012.89
2019-04-29T01:00:45.664Z,1012.89
2019-04-29T01:01:45.655Z,1012.91
2019-04-29T01:02:45.651Z,1012.89
2019-04-29T01:03:45.644Z,1012.89
2019-04-29T01:04:45.636Z,1012.89
2019-04-29T01:05:45.630Z,1012.87
2019-04-29T01:06:45.625Z,1012.87
2019-04-29T01:07:45.616Z,1012.85
2019-04-29T01:08:45.610Z,1012.90
2019-04-29T01:09:45.605Z,1012.89
2019-04-29T01:10:45.598Z,1012.88
2019-04-29T01:11:45.590Z,1012.86
2019-04-29T01:12:45.585Z,1012.88
2019-04-29T01:13:45.578Z,1012.89
2019-04-29T01:14:45.572Z,1012.87
2019-04-29T01:15:45.565Z,1012.89
2019-04-29T01:16:45.557Z,1012.87
2019-04-29T01:17:45.551Z,1012.88
2019-04-29T01:18:45.546Z,1012.89
2019-04-29T01:19:45.540Z,1012.81
2019-04-29T01:20:45.532Z,1012.85
2019-04-29T01:21:45.526Z,1012.86
2019-04-29T01:22:45.518Z,1012.84
2019-04-29T01:23:45.512Z,1012.83
2019-04-29T01:24:45.509Z,1012.90
2019-04-29T01:25:45.501Z,1012.90
2019-04-29T01:26:45.492Z,1012.92
2019-04-29T01:27:45.492Z,1012.90
2019-04-29T01:28:45.478Z,1012.89
2019-04-29T01:29:45.473Z,1012.89
2019-04-29T01:30:45.467Z,1012.89
2019-04-29T01:31:45.461Z,1012.89
2019-04-29T01:32:45.453Z,1012.89
2019-04-29T01:33:45.447Z,1012.92
2019-04-29T01:34:45.446Z,1012.90
2019-04-29T01:35:45.437Z,1012.92
2019-04-29T01:36:45.429Z,1012.92
2019-04-29T01:37:45.419Z,1012.92
2019-04-29T01:38:48.463Z,1012.90
2019-04-29T01:39:45.414Z,1012.93
2019-04-29T01:40:45.401Z,1012.92
2019-04-29T01:41:45.395Z,1012.89
2019-04-29T01:42:45.389Z,1012.90
2019-04-29T01:43:45.381Z,1012.92
2019-04-29T01:44:45.374Z,1012.91
2019-04-29T01:45:45.368Z,1012.89
2019-04-29T01:46:45.361Z,1012.90
2019-04-29T01:47:45.355Z,1012.93
2019-04-29T01:48:45.347Z,1012.87
2019-04-29T01:49:45.339Z,1012.85
2019-04-29T01:50:45.334Z,1012.90
2019-04-29T01:51:45.329Z,1012.90
2019-04-29T01:52:45.320Z,1012.92
2019-04-29T01:53:45.314Z,1012.91
2019-04-29T01:54:45.309Z,1012.92
2019-04-29T01:55:45.301Z,1012.96
2019-04-29T01:56:45.293Z,1012.98
2019-04-29T01:57:45.291Z,1012.98
2019-04-29T01:58:45.279Z,1013.00
2019-04-29T01:59:45.275Z,1012.98
2019-04-29T02:00:45.276Z,1013.02
2019-04-29T02:01:45.260Z,1013.01
2019-04-29T02:02:45.254Z,1013.06
2019-04-29T02:03:45.250Z,1013.05
2019-04-29T02:04:45.238Z,1013.04
2019-04-29T02:05:45.234Z,1013.08
2019-04-29T02:06:45.226Z,1013.07
2019-04-29T02:07:45.220Z,1013.09
2019-04-29T02:08:45.215Z,1013.05
2019-04-29T02:09:45.206Z,1013.05
2019-04-29T02:10:45.198Z,1013.07
2019-04-29T02:11:45.193Z,1013.07
2019-04-29T02:12:45.186Z,1013.09
2019-04-29T02:13:45.180Z,1013.06
2019-04-29T02:14:45.173Z,1013.08
2019-04-29T02:15:45.166Z,1013.08
2019-04-29T02:16:45.160Z,1013.11
2019-04-29T02:17:45.156Z,1013.09
2019-04-29T02:18:45.146Z,1013.07
2019-04-29T02:19:45.139Z,1013.06
2019-04-29T02:20:45.131Z,1013.12
2019-04-29T02:21:45.124Z,1013.14
2019-04-29T02:22:45.125Z,1013.12
2019-04-29T02:23:45.113Z,1013.16
2019-04-29T02:24:45.131Z,1013.16
2019-04-29T02:25:45.097Z,1013.13
2019-04-29T02:26:45.091Z,1013.14
2019-04-29T02:27:45.085Z,1013.15
2019-04-29T02:28:45.078Z,1013.15
2019-04-29T02:29:45.071Z,1013.15
2019-04-29T02:30:45.067Z,1013.16
2019-04-29T02:31:45.060Z,1013.18
2019-04-29T02:32:45.052Z,1013.18
2019-04-29T02:33:45.045Z,1013.15
2019-04-29T02:34:45.039Z,1013.20
2019-04-29T02:35:45.040Z,1013.15
2019-04-29T02:36:45.025Z,1013.19
2019-04-29T02:37:45.017Z,1013.18
2019-04-29T02:38:45.012Z,1013.17
2019-04-29T02:39:45.004Z,1013.20
2019-04-29T02:40:44.995Z,1013.15
2019-04-29T02:41:44.993Z,1013.15
2019-04-29T02:42:44.983Z,1013.14
2019-04-29T02:43:44.981Z,1013.19
2019-04-29T02:44:44.969Z,1013.18
2019-04-29T02:45:44.963Z,1013.14
2019-04-29T02:46:44.957Z,1013.15
2019-04-29T02:47:44.949Z,1013.17
2019-04-29T02:48:44.942Z,1013.14
2019-04-29T02:49:44.934Z,1013.16
2019-04-29T02:50:44.930Z,1013.18
2019-04-29T02:51:44.928Z,1013.18
2019-04-29T02:52:44.913Z,1013.15
2019-04-29T02:53:44.914Z,1013.13
2019-04-29T02:54:44.902Z,1013.15
2019-04-29T02:55:44.896Z,1013.11
2019-04-29T02:56:44.889Z,1013.11
2019-04-29T02:57:44.987Z,1013.10
2019-04-29T02:58:44.875Z,1013.07
2019-04-29T02:59:44.870Z,1013.06
2019-04-29T03:00:44.865Z,1013.07
2019-04-29T03:01:44.853Z,1013.06
2019-04-29T03:02:44.850Z,1013.04
2019-04-29T03:03:44.841Z,1013.12
2019-04-29T03:04:44.837Z,1013.07
2019-04-29T03:05:44.827Z,1013.08
2019-04-29T03:06:44.819Z,1013.06
2019-04-29T03:07:44.813Z,1013.09
2019-04-29T03:08:44.804Z,1013.08
2019-04-29T03:09:44.799Z,1013.07
2019-04-29T03:10:44.793Z,1013.04
2019-04-29T03:11:44.785Z,1013.07
2019-04-29T03:12:44.778Z,1013.08
2019-04-29T03:13:44.770Z,1013.10
2019-04-29T03:14:44.765Z,1013.10
2019-04-29T03:15:44.760Z,1013.09
2019-04-29T03:16:44.757Z,1013.06
2019-04-29T03:17:44.745Z,1013.06
2019-04-29T03:18:44.741Z,1013.07
2019-04-29T03:19:44.732Z,1013.10
2019-04-29T03:20:44.741Z,1013.10
2019-04-29T03:21:44.716Z,1013.12
2019-04-29T03:22:44.711Z,1013.15
2019-04-29T03:23:44.703Z,1013.09
2019-04-29T03:24:44.697Z,1013.12
2019-04-29T03:25:44.688Z,1013.12
2019-04-29T03:26:44.683Z,1013.10
2019-04-29T03:27:44.676Z,1013.12
2019-04-29T03:28:44.668Z,1013.10
2019-04-29T03:29:44.662Z,1013.12
2019-04-29T03:30:44.658Z,1013.12
2019-04-29T03:31:44.651Z,1013.14
2019-04-29T03:32:44.642Z,1013.15
2019-04-29T03:33:44.634Z,1013.13
2019-04-29T03:34:44.633Z,1013.19
2019-04-29T03:35:44.622Z,1013.14
2019-04-29T03:36:44.616Z,1013.17
2019-04-29T03:37:44.611Z,1013.17
2019-04-29T03:38:44.599Z,1013.15
2019-04-29T03:39:44.593Z,1013.12
2019-04-29T03:40:44.587Z,1013.14
2019-04-29T03:41:44.578Z,1013.14
2019-04-29T03:42:44.574Z,1013.16
2019-04-29T03:43:44.567Z,1013.15
2019-04-29T03:44:44.559Z,1013.18
2019-04-29T03:45:44.553Z,1013.16
2019-04-29T03:46:44.545Z,1013.20
2019-04-29T03:47:44.538Z,1013.16
2019-04-29T03:48:44.532Z,1013.15
2019-04-29T03:49:44.524Z,1013.16
2019-04-29T03:50:44.521Z,1013.18
2019-04-29T03:51:44.516Z,1013.16
2019-04-29T03:52:44.507Z,1013.22
2019-04-29T03:53:44.497Z,1013.15
2019-04-29T03:54:44.491Z,1013.17
2019-04-29T03:55:44.499Z,1013.20
2019-04-29T03:56:44.477Z,1013.19
2019-04-29T03:57:44.470Z,1013.13
2019-04-29T03:58:44.465Z,1013.14
2019-04-29T03:59:44.465Z,1013.18
2019-04-29T04:00:44.590Z,1013.15
2019-04-29T04:01:44.444Z,1013.14
2019-04-29T04:02:44.439Z,1013.15
2019-04-29T04:03:44.445Z,1013.19
2019-04-29T04:04:44.423Z,1013.21
2019-04-29T04:05:44.416Z,1013.26
2019-04-29T04:06:44.410Z,1013.25
2019-04-29T04:07:44.405Z,1013.26
2019-04-29T04:08:44.396Z,1013.23
2019-04-29T04:09:44.390Z,1013.23
2019-04-29T04:10:44.383Z,1013.27
2019-04-29T04:11:44.379Z,1013.22
2019-04-29T04:12:44.369Z,1013.26
2019-04-29T04:13:44.362Z,1013.29
2019-04-29T04:14:44.356Z,1013.25
2019-04-29T04:15:44.348Z,1013.26
2019-04-29T04:16:44.341Z,1013.28
2019-04-29T04:17:44.335Z,1013.29
2019-04-29T04:18:44.328Z,1013.33
2019-04-29T04:19:44.322Z,1013.29
2019-04-29T04:20:44.313Z,1013.30
2019-04-29T04:21:44.306Z,1013.31
2019-04-29T04:22:44.301Z,1013.33
2019-04-29T04:23:44.293Z,1013.31
2019-04-29T04:24:44.287Z,1013.30
2019-04-29T04:25:44.280Z,1013.32
2019-04-29T04:26:44.274Z,1013.30
2019-04-29T04:27:44.274Z,1013.31
2019-04-29T04:28:44.261Z,1013.33
2019-04-29T04:29:44.251Z,1013.33
2019-04-29T04:30:44.247Z,1013.31
2019-04-29T04:31:44.239Z,1013.32
2019-04-29T04:32:44.233Z,1013.38
2019-04-29T04:33:44.225Z,1013.35
2019-04-29T04:34:44.344Z,1013.38
2019-04-29T04:35:44.209Z,1013.36
2019-04-29T04:36:44.204Z,1013.36
2019-04-29T04:37:44.198Z,1013.33
2019-04-29T04:38:44.191Z,1013.32
2019-04-29T04:39:44.187Z,1013.32
2019-04-29T04:40:44.177Z,1013.33
2019-04-29T04:41:44.171Z,1013.31
2019-04-29T04:42:44.164Z,1013.32
2019-04-29T04:43:44.162Z,1013.35
2019-04-29T04:44:44.181Z,1013.35
2019-04-29T04:45:44.144Z,1013.40
2019-04-29T04:46:44.147Z,1013.42
2019-04-29T04:47:44.138Z,1013.45
2019-04-29T04:48:44.122Z,1013.43
2019-04-29T04:49:44.131Z,1013.43
2019-04-29T04:50:44.109Z,1013.46
2019-04-29T04:51:44.102Z,1013.47
2019-04-29T04:52:44.094Z,1013.48
2019-04-29T04:53:44.093Z,1013.49
2019-04-29T04:54:44.081Z,1013.44
2019-04-29T04:55:44.074Z,1013.47
2019-04-29T04:56:44.067Z,1013.49
2019-04-29T04:57:44.059Z,1013.48
2019-04-29T04:58:44.053Z,1013.52
2019-04-29T04:59:44.052Z,1013.55
2019-04-29T05:00:44.039Z,1013.56
2019-04-29T05:01:44.035Z,1013.58
2019-04-29T05:02:44.028Z,1013.57
2019-04-29T05:03:44.023Z,1013.62
2019-04-29T05:04:44.013Z,1013.59
2019-04-29T05:05:44.007Z,1013.63
2019-04-29T05:06:44.001Z,1013.63
2019-04-29T05:07:43.999Z,1013.61
2019-04-29T05:08:43.986Z,1013.66
2019-04-29T05:09:43.981Z,1013.72
2019-04-29T05:10:43.975Z,1013.70
2019-04-29T05:11:43.967Z,1013.72
2019-04-29T05:12:43.961Z,1013.69
2019-04-29T05:13:43.954Z,1013.77
2019-04-29T05:14:43.947Z,1013.73
2019-04-29T05:15:43.940Z,1013.74
2019-04-29T05:16:43.933Z,1013.74
2019-04-29T05:17:43.928Z,1013.78
2019-04-29T05:18:43.921Z,1013.80
2019-04-29T05:19:43.952Z,1013.78
2019-04-29T05:20:43.907Z,1013.80
2019-04-29T05:21:43.901Z,1013.79
2019-04-29T05:22:43.899Z,1013.77
2019-04-29T05:23:43.889Z,1013.74
2019-04-29T05:24:43.880Z,1013.77
2019-04-29T05:25:43.881Z,1013.78
2019-04-29T05:26:43.867Z,1013.76
2019-04-29T05:27:43.864Z,1013.82
2019-04-29T05:28:43.855Z,1013.82
2019-04-29T05:29:43.849Z,1013.80
2019-04-29T05:30:43.846Z,1013.80
2019-04-29T05:31:43.840Z,1013.84
2019-04-29T05:32:43.834Z,1013.82
2019-04-29T05:33:43.823Z,1013.84
2019-04-29T05:34:46.461Z,1013.85
2019-04-29T05:35:43.811Z,1013.87
2019-04-29T05:36:43.807Z,1013.85
2019-04-29T05:37:43.797Z,1013.90
2019-04-29T05:38:43.792Z,1013.92
2019-04-29T05:39:43.790Z,1013.92
2019-04-29T05:40:43.780Z,1013.95
2019-04-29T05:41:43.772Z,1013.94
2019-04-29T05:42:43.768Z,1013.92
2019-04-29T05:43:43.762Z,1013.95
2019-04-29T05:44:43.754Z,1013.99
2019-04-29T05:45:46.235Z,1014.00
2019-04-29T05:46:43.772Z,1014.00
2019-04-29T05:47:43.736Z,1014.03
2019-04-29T05:48:43.729Z,1014.01
2019-04-29T05:49:43.726Z,1014.00
2019-04-29T05:50:47.483Z,1014.02
2019-04-29T05:51:43.711Z,1014.01
2019-04-29T05:52:43.705Z,1014.02
2019-04-29T05:53:47.297Z,1014.06
2019-04-29T05:54:43.691Z,1014.03
2019-04-29T05:55:43.689Z,1014.05
2019-04-29T05:56:43.680Z,1014.05
2019-04-29T05:57:43.675Z,1014.07
2019-04-29T05:58:43.668Z,1014.07
2019-04-29T05:59:47.693Z,1014.12
2019-04-29T06:00:43.656Z,1014.12
2019-04-29T06:01:47.143Z,1014.13
2019-04-29T06:02:43.646Z,1014.12
2019-04-29T06:03:44.526Z,1014.16
2019-04-29T06:04:43.633Z,1014.12
2019-04-29T06:05:43.630Z,1014.11
2019-04-29T06:06:43.623Z,1014.06
2019-04-29T06:07:43.616Z,1014.06
2019-04-29T06:08:43.610Z,1014.12
2019-04-29T06:09:43.605Z,1014.10
2019-04-29T06:10:43.613Z,1014.10
2019-04-29T06:11:43.596Z,1014.12
2019-04-29T06:12:44.558Z,1014.15
2019-04-29T06:13:43.582Z,1014.12
2019-04-29T06:14:43.578Z,1014.19
2019-04-29T06:15:44.989Z,1014.14
2019-04-29T06:16:43.566Z,1014.16
2019-04-29T06:17:44.895Z,1014.19
2019-04-29T06:19:43.549Z,1014.19
2019-04-29T06:21:07.850Z,1014.20
2019-04-29T06:21:43.538Z,1014.18
2019-04-29T06:22:43.624Z,1014.21
2019-04-29T06:23:43.527Z,1014.21
2019-04-29T06:24:43.524Z,1014.22
2019-04-29T06:25:43.516Z,1014.20
2019-04-29T06:26:43.679Z,1014.25
2019-04-29T06:27:43.509Z,1014.23
2019-04-29T06:28:43.501Z,1014.23
2019-04-29T06:29:43.496Z,1014.30
2019-04-29T06:31:31.821Z,1014.29
2019-04-29T06:32:31.816Z,1014.32
2019-04-29T06:33:31.810Z,1014.31
2019-04-29T06:34:35.398Z,1014.30
2019-04-29T06:35:31.800Z,1014.34
2019-04-29T06:36:31.794Z,1014.32
2019-04-29T06:37:31.792Z,1014.38
2019-04-29T06:38:31.787Z,1014.41
2019-04-29T06:39:31.780Z,1014.40
2019-04-29T06:40:35.294Z,1014.43
2019-04-29T06:41:31.770Z,1014.43
2019-04-29T06:42:33.420Z,1014.47
2019-04-29T06:43:31.761Z,1014.45
2019-04-29T06:44:31.756Z,1014.46
2019-04-29T06:45:31.754Z,1014.47
2019-04-29T06:46:31.747Z,1014.49
2019-04-29T06:47:31.741Z,1014.53
2019-04-29T06:48:31.741Z,1014.47
2019-04-29T06:49:31.731Z,1014.50
2019-04-29T06:50:31.726Z,1014.50
2019-04-29T06:51:31.720Z,1014.54
2019-04-29T06:52:31.718Z,1014.52
2019-04-29T06:53:31.711Z,1014.57
2019-04-29T06:54:31.707Z,1014.56
2019-04-29T06:55:31.703Z,1014.59
2019-04-29T06:56:31.699Z,1014.55
2019-04-29T06:57:31.692Z,1014.60
2019-04-29T06:58:32.456Z,1014.60
2019-04-29T06:59:31.694Z,1014.60
2019-04-29T07:00:31.679Z,1014.60
2019-04-29T07:01:33.117Z,1014.63
2019-04-29T07:02:31.670Z,1014.58
2019-04-29T07:03:31.667Z,1014.63
2019-04-29T07:04:38.461Z,1014.63
2019-04-29T07:05:31.658Z,1014.62
2019-04-29T07:06:31.652Z,1014.62
2019-04-29T07:07:31.648Z,1014.64
2019-04-29T07:08:31.641Z,1014.59
2019-04-29T07:09:31.638Z,1014.60
2019-04-29T07:10:31.635Z,1014.60
2019-04-29T07:11:31.764Z,1014.60
2019-04-29T07:12:31.625Z,1014.59
2019-04-29T07:13:31.620Z,1014.60
2019-04-29T07:14:33.316Z,1014.57
2019-04-29T07:15:31.617Z,1014.62
2019-04-29T07:16:32.088Z,1014.67
2019-04-29T07:17:31.601Z,1014.64
2019-04-29T07:18:31.598Z,1014.62
2019-04-29T07:19:31.592Z,1014.60
2019-04-29T07:20:32.483Z,1014.58
2019-04-29T07:21:31.584Z,1014.57
2019-04-29T07:22:31.581Z,1014.55
2019-04-29T07:23:31.575Z,1014.59
2019-04-29T07:24:31.574Z,1014.57
2019-04-29T07:25:31.568Z,1014.56
2019-04-29T07:26:31.564Z,1014.55
2019-04-29T07:27:34.870Z,1014.58
2019-04-29T07:28:31.553Z,1014.56
2019-04-29T07:29:32.698Z,1014.56
2019-04-29T07:30:31.548Z,1014.60
2019-04-29T07:31:33.236Z,1014.61
2019-04-29T07:32:32.487Z,1014.62
2019-04-29T07:33:31.536Z,1014.63
2019-04-29T07:34:33.795Z,1014.64
2019-04-29T07:35:31.527Z,1014.68
2019-04-29T07:36:31.521Z,1014.66
2019-04-29T07:37:34.063Z,1014.66
2019-04-29T07:38:41.134Z,1014.70
2019-04-29T07:39:33.159Z,1014.62
2019-04-29T07:40:31.508Z,1014.66
2019-04-29T07:41:31.502Z,1014.70
2019-04-29T07:42:33.213Z,1014.65
2019-04-29T07:43:31.494Z,1014.72
2019-04-29T07:44:43.314Z,1014.70
2019-04-29T07:45:43.670Z,1014.71
2019-04-29T07:46:36.428Z,1014.70
2019-04-29T07:47:31.483Z,1014.75
2019-04-29T07:48:31.479Z,1014.69
2019-04-29T07:49:31.473Z,1014.74
2019-04-29T07:50:31.470Z,1014.75
2019-04-29T07:51:34.752Z,1014.77
2019-04-29T07:52:31.462Z,1014.74
2019-04-29T07:53:40.130Z,1014.80
2019-04-29T07:54:31.459Z,1014.86
2019-04-29T07:55:32.577Z,1014.87
2019-04-29T07:56:31.451Z,1014.88
2019-04-29T07:57:31.448Z,1014.95
2019-04-29T07:58:31.446Z,1014.94
2019-04-29T07:59:33.759Z,1014.96
2019-04-29T08:00:31.439Z,1014.97
2019-04-29T08:01:31.439Z,1014.98
2019-04-29T08:02:31.434Z,1015.03
2019-04-29T08:03:31.433Z,1015.04
2019-04-29T08:04:31.434Z,1015.11
2019-04-29T08:05:31.429Z,1015.65
2019-04-29T08:06:31.425Z,1015.15
2019-04-29T08:07:31.425Z,1015.44
2019-04-29T08:08:31.427Z,1015.80
2019-04-29T08:09:31.422Z,1015.75
2019-04-29T08:10:31.422Z,1015.55
2019-04-29T08:11:31.423Z,1015.65
2019-04-29T08:13:31.423Z,1015.48
2019-04-29T08:14:31.424Z,1015.81
2019-04-29T08:15:32.052Z,1015.74
2019-04-29T08:16:31.425Z,1015.74
2019-04-29T08:17:31.427Z,1015.74
2019-04-29T08:18:31.429Z,1015.79
2019-04-29T08:19:31.636Z,1015.70
2019-04-29T08:20:31.436Z,1015.71
2019-04-29T08:21:31.439Z,1015.63
2019-04-29T08:22:31.444Z,1015.57
2019-04-29T08:23:32.583Z,1015.53
2019-04-29T08:24:31.451Z,1015.46
2019-04-29T08:25:31.456Z,1015.47
2019-04-29T08:26:33.571Z,1015.47
2019-04-29T08:27:39.801Z,1015.46
2019-04-29T08:28:31.470Z,1015.44
2019-04-29T08:29:35.708Z,1015.36
2019-04-29T08:30:31.482Z,1015.38
2019-04-29T08:31:31.487Z,1015.43
2019-04-29T08:32:31.598Z,1015.37
2019-04-29T08:33:31.500Z,1015.44
2019-04-29T08:34:31.507Z,1015.47
2019-04-29T08:35:32.680Z,1015.40
2019-04-29T08:36:31.519Z,1015.39
2019-04-29T08:37:31.527Z,1015.38
2019-04-29T08:38:31.536Z,1015.41
2019-04-29T08:39:31.541Z,1015.43
2019-04-29T08:40:34.155Z,1015.40
2019-04-29T08:41:31.557Z,1015.36
2019-04-29T08:42:31.563Z,1015.38
2019-04-29T08:43:31.570Z,1015.40
2019-04-29T08:44:31.577Z,1015.39
2019-04-29T08:45:34.677Z,1015.40
2019-04-29T08:46:31.592Z,1015.45
2019-04-29T08:47:31.815Z,1015.44
2019-04-29T08:48:31.609Z,1015.41
2019-04-29T08:49:31.617Z,1015.40
2019-04-29T08:50:31.625Z,1015.42
2019-04-29T08:51:31.632Z,1015.48
2019-04-29T08:52:31.641Z,1015.49
2019-04-29T08:53:31.651Z,1015.46
2019-04-29T08:54:31.659Z,1015.47
2019-04-29T08:55:36.017Z,1015.47
2019-04-29T08:56:31.674Z,1015.52
2019-04-29T08:57:35.934Z,1015.53
2019-04-29T08:58:31.691Z,1015.53
2019-04-29T08:59:31.700Z,1015.51
2019-04-29T09:00:31.710Z,1015.51
2019-04-29T09:01:33.944Z,1015.51
2019-04-29T09:02:35.056Z,1015.46
2019-04-29T09:03:40.222Z,1015.42
2019-04-29T09:04:33.259Z,1015.39
2019-04-29T09:05:31.754Z,1015.48
2019-04-29T09:06:32.643Z,1015.44
2019-04-29T09:07:31.774Z,1015.47
2019-04-29T09:08:32.927Z,1015.44
2019-04-29T09:09:31.797Z,1015.45
2019-04-29T09:10:32.953Z,1015.49
2019-04-29T09:11:31.806Z,1015.59
2019-04-29T09:12:31.816Z,1015.57
2019-04-29T09:13:31.825Z,1015.59
2019-04-29T09:14:31.835Z,1015.40
2019-04-29T09:15:31.842Z,1015.39
2019-04-29T09:16:31.850Z,1015.36
2019-04-29T09:17:31.861Z,1015.36
2019-04-29T09:18:31.868Z,1015.62
2019-04-29T09:19:31.876Z,1015.66
2019-04-29T09:20:31.887Z,1015.68
2019-04-29T09:21:31.895Z,1015.62
2019-04-29T09:22:31.905Z,1015.64
2019-04-29T09:23:31.910Z,1015.67
2019-04-29T09:24:31.919Z,1015.75
2019-04-29T09:25:31.927Z,1015.74
2019-04-29T09:26:31.935Z,1015.82
2019-04-29T09:27:31.945Z,1015.78
2019-04-29T09:28:31.953Z,1015.72
2019-04-29T09:29:31.962Z,1015.73
2019-04-29T09:30:31.971Z,1015.69
2019-04-29T09:31:31.977Z,1015.70
2019-04-29T09:32:33.989Z,1015.73
2019-04-29T09:33:31.994Z,1015.70
2019-04-29T09:34:32.005Z,1015.74
2019-04-29T09:35:33.760Z,1015.73
2019-04-29T09:36:32.022Z,1015.85
2019-04-29T09:37:32.031Z,1015.82
2019-04-29T09:38:32.573Z,1015.71
2019-04-29T09:39:42.379Z,1015.84
2019-04-29T09:40:32.055Z,1015.70
2019-04-29T09:41:35.102Z,1015.67
2019-04-29T09:42:32.074Z,1015.68
2019-04-29T09:43:32.950Z,1015.72
2019-04-29T09:44:35.173Z,1015.71
2019-04-29T09:45:32.103Z,1015.66
2019-04-29T09:46:34.487Z,1015.04
2019-04-29T09:47:32.119Z,1015.20
2019-04-29T09:48:32.126Z,1015.26
2019-04-29T09:49:32.133Z,1015.64
2019-04-29T09:50:34.162Z,1015.30
2019-04-29T09:51:32.150Z,1015.06
2019-04-29T09:52:32.164Z,1015.46
2019-04-29T09:53:32.167Z,1015.46
2019-04-29T09:54:32.177Z,1015.11
2019-04-29T09:55:35.691Z,1015.07
2019-04-29T09:56:34.548Z,1015.39
2019-04-29T09:57:32.198Z,1015.07
2019-04-29T09:58:32.203Z,1015.04
2019-04-29T09:59:32.211Z,1015.01
2019-04-29T10:00:32.216Z,1014.94
2019-04-29T10:01:32.225Z,1014.96
2019-04-29T10:02:33.160Z,1014.98
2019-04-29T10:03:32.236Z,1014.99
2019-04-29T10:04:32.243Z,1014.98
2019-04-29T10:05:32.249Z,1014.96
2019-04-29T10:06:32.256Z,1015.04
2019-04-29T10:07:32.262Z,1015.07
2019-04-29T10:08:32.266Z,1015.06
2019-04-29T10:09:32.275Z,1015.02
2019-04-29T10:10:32.278Z,1015.01
2019-04-29T10:11:32.284Z,1015.02
2019-04-29T10:12:32.287Z,1014.99
2019-04-29T10:13:32.293Z,1014.96
2019-04-29T10:14:32.298Z,1014.96
2019-04-29T10:15:32.302Z,1014.93
2019-04-29T10:16:35.868Z,1014.91
2019-04-29T10:17:32.310Z,1014.94
2019-04-29T10:18:32.315Z,1014.93
2019-04-29T10:19:32.320Z,1014.95
2019-04-29T10:20:32.323Z,1014.93
2019-04-29T10:21:32.334Z,1014.87
2019-04-29T10:22:32.337Z,1014.92
2019-04-29T10:23:32.337Z,1014.94
2019-04-29T10:24:32.341Z,1014.92
2019-04-29T10:25:32.347Z,1014.90
2019-04-29T10:26:32.349Z,1014.84
2019-04-29T10:27:32.352Z,1014.85
2019-04-29T10:28:32.355Z,1014.95
2019-04-29T10:29:32.361Z,1015.10
2019-04-29T10:30:32.535Z,1014.96
2019-04-29T10:31:32.367Z,1014.88
2019-04-29T10:32:32.371Z,1014.81
2019-04-29T10:33:32.373Z,1014.72
2019-04-29T10:34:33.074Z,1014.74
2019-04-29T10:35:32.380Z,1014.73
2019-04-29T10:36:32.385Z,1014.65
2019-04-29T10:37:32.727Z,1014.67
2019-04-29T10:38:32.394Z,1014.63
2019-04-29T10:39:32.396Z,1014.61
2019-04-29T10:40:32.398Z,1014.73
2019-04-29T10:41:36.115Z,1014.68
2019-04-29T10:42:32.405Z,1014.65
2019-04-29T10:43:35.556Z,1014.74
2019-04-29T10:44:32.410Z,1014.67
2019-04-29T10:45:32.416Z,1014.65
2019-04-29T10:46:32.420Z,1014.70
2019-04-29T10:47:32.422Z,1014.69
2019-04-29T10:48:32.424Z,1014.70
2019-04-29T10:49:34.841Z,1014.68
2019-04-29T10:50:32.434Z,1014.76
2019-04-29T10:51:32.433Z,1014.69
2019-04-29T10:52:34.559Z,1014.62
2019-04-29T10:53:32.438Z,1014.63
2019-04-29T10:54:32.443Z,1014.70
2019-04-29T10:55:32.444Z,1014.57
2019-04-29T10:56:35.309Z,1014.59
2019-04-29T10:57:32.451Z,1014.67
2019-04-29T10:58:35.636Z,1014.61
2019-04-29T10:59:35.939Z,1014.52
2019-04-29T11:00:32.463Z,1014.50
2019-04-29T11:01:32.463Z,1014.48
2019-04-29T11:02:32.465Z,1014.52
2019-04-29T11:03:32.467Z,1014.46
2019-04-29T11:04:36.099Z,1014.48
2019-04-29T11:05:32.473Z,1014.54
2019-04-29T11:06:35.897Z,1014.46
2019-04-29T11:07:32.478Z,1014.40
2019-04-29T11:08:33.740Z,1014.43
2019-04-29T11:09:32.485Z,1014.39
2019-04-29T11:10:32.489Z,1014.43
2019-04-29T11:11:32.491Z,1014.36
2019-04-29T11:12:32.498Z,1014.42
2019-04-29T11:13:32.498Z,1014.43
2019-04-29T11:14:33.180Z,1014.39
2019-04-29T11:15:32.792Z,1014.42
2019-04-29T11:16:46.132Z,1014.38
2019-04-29T11:17:34.853Z,1014.42
2019-04-29T11:18:32.510Z,1014.31
2019-04-29T11:19:35.101Z,1014.31
2019-04-29T11:20:32.516Z,1014.29
2019-04-29T11:21:32.520Z,1014.32
2019-04-29T11:22:33.873Z,1014.35
2019-04-29T11:23:32.523Z,1014.31
2019-04-29T11:24:32.566Z,1014.31
2019-04-29T11:25:32.529Z,1014.26
2019-04-29T11:26:32.532Z,1014.20
2019-04-29T11:27:32.534Z,1014.27
2019-04-29T11:28:32.536Z,1014.27
2019-04-29T11:29:35.556Z,1014.27
2019-04-29T11:30:34.891Z,1014.27
2019-04-29T11:31:32.608Z,1014.29
2019-04-29T11:32:32.546Z,1014.25
2019-04-29T11:33:35.603Z,1014.25
2019-04-29T11:34:33.402Z,1014.33
2019-04-29T11:35:35.566Z,1014.24
2019-04-29T11:36:35.045Z,1014.36
2019-04-29T11:37:32.558Z,1014.28
2019-04-29T11:38:33.466Z,1014.25
2019-04-29T11:39:32.560Z,1014.19
2019-04-29T11:40:43.092Z,1014.15
2019-04-29T11:41:32.568Z,1014.10
2019-04-29T11:42:36.437Z,1014.11
2019-04-29T11:43:32.572Z,1014.12
2019-04-29T11:44:32.576Z,1014.16
2019-04-29T11:45:33.921Z,1014.16
2019-04-29T11:46:32.577Z,1014.13
2019-04-29T11:47:32.579Z,1014.13
2019-04-29T11:48:32.581Z,1014.19
2019-04-29T11:49:32.584Z,1014.07
2019-04-29T11:50:32.587Z,1014.05
2019-04-29T11:51:34.079Z,1014.15
2019-04-29T11:52:32.611Z,1014.12
2019-04-29T11:53:32.591Z,1014.05
2019-04-29T11:54:32.594Z,1014.04
2019-04-29T11:55:32.597Z,1013.99
2019-04-29T11:56:32.598Z,1014.01
2019-04-29T11:57:40.744Z,1013.99
2019-04-29T11:58:32.602Z,1014.02
2019-04-29T11:59:32.618Z,1014.05
2019-04-29T12:00:32.605Z,1014.07
2019-04-29T12:01:39.250Z,1013.97
2019-04-29T12:02:45.474Z,1014.02
2019-04-29T12:03:32.611Z,1014.00
2019-04-29T12:04:33.392Z,1013.99
2019-04-29T12:05:32.613Z,1014.07
2019-04-29T12:06:32.616Z,1014.01
2019-04-29T12:07:34.045Z,1014.00
2019-04-29T12:08:32.618Z,1013.99